Pagina principale
METAR-TAF:

METAR-TAF

Aeroporti :

Aeroporto Internazionale di Nadi

Nadi, Figi

latitudine: 17-45S, longitudine: 177-27E, altezza: 13 m

Osservazione

Il bollettino è stato emesso 11 minuti fa, alle 12:00 UTC
Vento 3 kt da sud-est
Temperature 25°C
Umidità 89%
Pressione 1009 hPa
Visibilità 10 km o più
Poco nuvoloso ad un'altezza di 3000 ft
Nubi sparse ad un'altezza di 30000 ft

METAR: NFFN 171200Z 13003KT 9999 FEW030 SCT300 25/23 Q1009 NOSIG

Ora: 01:11 (12:11 UTC)

Previsione

Il bollettino è stato emesso 52 minuti fa, alle 11:19 UTC
Previsione valida dal 17 alle 12 UTC al 18 alle 12 UTC
Vento 5 kt da est
Visibilità 10 km o più
Nubi sparse ad un'altezza di 2800 ft
Evoluzione graduale
dal 17 alle 22 UTC al 17 alle 24 UTC
Vento 10 kt da ovest
Evoluzione graduale
dal 18 alle 05 UTC al 18 alle 07 UTC
Vento 5 kt da est

TAF: NFFN 171119Z 1712/1812 08005KT 9999 SCT028 BECMG 1722/1724 26010KT BECMG 1805/1807 10005KT

Osservazioni e previsioni meteorologiche di più di 4000 aeroporti (messaggi METAR e TAF).

Le stazioni disponibili sono rappresentate dai dischi gialli e rossi sulla carta.

Puntare il mouse per vedere il nome della stazione.

Clicca sopra per visualizzare le osservazioni e previsioni meteorologiche.

Per cambiare la mappa : fare clic sui pulsanti verdi con una croce nera per ingrandire, il pulsante verde con un trattino per diminuire, o sulla freccia verde per le mappe adiacenti.


METAR-TAF: